Lucia, California
Current Conditions -  °F | °C
As of 11:54 PM on Thursday 18 Dec 2014 (Local Time) from KMRY Reporting Station
Clear Clear  
Wind Chill: 50°   Ceiling: Unl
Heat Index: 50°   Visibility: 10mi
Dew Point: 48°   Wind: 0mph
Humidity: 93%   Direction: NA
Pressure: 30.21"   Gusts: NA
Location:  36.2518°N, 121.704°W
Report Text: KMRY 190754Z 00000KT 10SM CLR 10/09 A3021 RMK AO2 SLP242 T01000089 401670100
Loading
Personal Weather Stations






























Interactive Weather Map New forecast layout! Learn more

10-Day Weather Forecast

Advertisements
Track Severe Weather on mobile